Layuno Zallo — EA4876 — position and weather

sailwx.info

Track history (hours):
 
Tides and Currents Weather Stations Pressure Air Temp Water Temp Dewpoint Dewpoint Depression Visibility Wind Speed Wind Dir Waves Ship Positions

Layuno Zallo

Last reported at 2017-Nov-15 13:55 UTC. Time now 2017-Nov-18 01:21 UTC.
Position N 28°56' W 013°34'.

Length 18 m.

Type: Fishing. MMSI: 224081290.

Date/timePositionNaut miles runAvg speedWind from/ knotsBaromVisibWave heightAir tempDewpointWater temp
2017-Nov-15 13:55N 28°56' W 013°34'3 5.9
2017-Nov-15 13:26N 28°58' W 013°32'0 0.0
2017-Nov-15 13:00N 28°58' W 013°32'0 0.0
2017-Nov-15 12:30N 28°58' W 013°32'0 0.0
2017-Nov-15 11:56N 28°58' W 013°32'7 0.4
2017-Nov-14 17:37N 28°52' W 013°28'0 1.1
2017-Nov-14 17:17N 28°52' W 013°28'0 1.0
2017-Nov-14 16:56N 28°52' W 013°28'0 0.2
2017-Nov-14 16:28N 28°52' W 013°28'0 0.7
2017-Nov-14 15:49N 28°52' W 013°28'0 0.1
2017-Nov-14 15:30N 28°52' W 013°28'1 1.7
2017-Nov-14 14:38N 28°51' W 013°29'2 1.6
2017-Nov-14 13:37N 28°50' W 013°31'1 1.7
2017-Nov-14 13:08N 28°49' W 013°31'0 0.0
2017-Nov-12 17:06N 28°50' W 013°31'0 0.4
2017-Nov-12 16:53N 28°50' W 013°31'0 0.5
2017-Nov-12 16:30N 28°50' W 013°31'0 0.4
2017-Nov-12 15:58N 28°50' W 013°30'0 0.3
2017-Nov-12 15:30N 28°50' W 013°30'0 0.2
2017-Nov-12 14:55N 28°50' W 013°30'0 0.2
2017-Nov-12 14:27N 28°50' W 013°30'1 0.0
2017-Nov-10 17:29N 28°51' W 013°30'0 0.6
2017-Nov-10 16:49N 28°51' W 013°30'1 1.1
2017-Nov-10 16:06N 28°50' W 013°31'0 1.0
2017-Nov-10 15:59N 28°50' W 013°31'1 1.1
2017-Nov-10 15:06N 28°49' W 013°31'0 0.7
2017-Nov-10 14:57N 28°49' W 013°31'  
Track history (hours):
 
Tides and Currents Weather Stations Pressure Air Temp Water Temp Dewpoint Dewpoint Depression Visibility Wind Speed Wind Dir Waves Ship Positions

Layuno Zallo

Last reported at 2017-Nov-15 13:55 UTC. Time now 2017-Nov-18 01:21 UTC.
Position N 28°56' W 013°34'.

Length 18 m.

Type: Fishing. MMSI: 224081290.

Date/timePositionNaut miles runAvg speedWind from/ knotsBaromVisibWave heightAir tempDewpointWater temp
2017-Nov-15 13:55N 28°56' W 013°34'3 5.9
2017-Nov-15 13:26N 28°58' W 013°32'0 0.0
2017-Nov-15 13:00N 28°58' W 013°32'0 0.0
2017-Nov-15 12:30N 28°58' W 013°32'0 0.0
2017-Nov-15 11:56N 28°58' W 013°32'7 0.4
2017-Nov-14 17:37N 28°52' W 013°28'0 1.1
2017-Nov-14 17:17N 28°52' W 013°28'0 1.0
2017-Nov-14 16:56N 28°52' W 013°28'0 0.2
2017-Nov-14 16:28N 28°52' W 013°28'0 0.7
2017-Nov-14 15:49N 28°52' W 013°28'0 0.1
2017-Nov-14 15:30N 28°52' W 013°28'1 1.7
2017-Nov-14 14:38N 28°51' W 013°29'2 1.6
2017-Nov-14 13:37N 28°50' W 013°31'1 1.7
2017-Nov-14 13:08N 28°49' W 013°31'0 0.0
2017-Nov-12 17:06N 28°50' W 013°31'0 0.4
2017-Nov-12 16:53N 28°50' W 013°31'0 0.5
2017-Nov-12 16:30N 28°50' W 013°31'0 0.4
2017-Nov-12 15:58N 28°50' W 013°30'0 0.3
2017-Nov-12 15:30N 28°50' W 013°30'0 0.2
2017-Nov-12 14:55N 28°50' W 013°30'0 0.2
2017-Nov-12 14:27N 28°50' W 013°30'1 0.0
2017-Nov-10 17:29N 28°51' W 013°30'0 0.6
2017-Nov-10 16:49N 28°51' W 013°30'1 1.1
2017-Nov-10 16:06N 28°50' W 013°31'0 1.0
2017-Nov-10 15:59N 28°50' W 013°31'1 1.1
2017-Nov-10 15:06N 28°49' W 013°31'0 0.7
2017-Nov-10 14:57N 28°49' W 013°31'  

Dump ship's entire track history